sensor_id;sensor_type;location;lat;lon;timestamp;temperature;humidity
52267;DHT22;38223;50.940;4.034;2023-12-20T00:01:40;8.00;99.90
52267;DHT22;38223;50.940;4.034;2023-12-20T00:04:11;8.00;99.90
52267;DHT22;38223;50.940;4.034;2023-12-20T00:06:41;8.00;99.90
52267;DHT22;38223;50.940;4.034;2023-12-20T00:09:11;8.00;99.90
52267;DHT22;38223;50.940;4.034;2023-12-20T00:11:44;8.00;99.90
52267;DHT22;38223;50.940;4.034;2023-12-20T00:14:12;8.10;99.90
52267;DHT22;38223;50.940;4.034;2023-12-20T00:16:43;8.10;99.90
52267;DHT22;38223;50.940;4.034;2023-12-20T00:19:14;8.20;99.90
52267;DHT22;38223;50.940;4.034;2023-12-20T00:21:46;8.10;99.90
52267;DHT22;38223;50.940;4.034;2023-12-20T00:24:13;8.10;99.90
52267;DHT22;38223;50.940;4.034;2023-12-20T00:26:41;8.20;99.90
52267;DHT22;38223;50.940;4.034;2023-12-20T00:29:08;8.30;99.90
52267;DHT22;38223;50.940;4.034;2023-12-20T00:31:36;8.30;99.90
52267;DHT22;38223;50.940;4.034;2023-12-20T00:34:06;8.30;99.90
52267;DHT22;38223;50.940;4.034;2023-12-20T00:36:33;8.20;99.90
52267;DHT22;38223;50.940;4.034;2023-12-20T00:39:03;8.10;99.90
52267;DHT22;38223;50.940;4.034;2023-12-20T00:41:38;7.90;99.90
52267;DHT22;38223;50.940;4.034;2023-12-20T00:44:05;8.00;99.90
52267;DHT22;38223;50.940;4.034;2023-12-20T00:46:34;8.00;99.90
52267;DHT22;38223;50.940;4.034;2023-12-20T00:49:03;8.00;99.90
52267;DHT22;38223;50.940;4.034;2023-12-20T00:51:36;8.00;99.90
52267;DHT22;38223;50.940;4.034;2023-12-20T00:54:03;7.90;99.90
52267;DHT22;38223;50.940;4.034;2023-12-20T00:56:33;8.00;99.90
52267;DHT22;38223;50.940;4.034;2023-12-20T00:59:02;8.10;99.90
52267;DHT22;38223;50.940;4.034;2023-12-20T01:01:33;7.90;99.90
52267;DHT22;38223;50.940;4.034;2023-12-20T01:04:00;7.80;99.90
52267;DHT22;38223;50.940;4.034;2023-12-20T01:06:30;7.90;99.90
52267;DHT22;38223;50.940;4.034;2023-12-20T01:09:00;7.90;99.90
52267;DHT22;38223;50.940;4.034;2023-12-20T01:11:29;7.80;99.90
52267;DHT22;38223;50.940;4.034;2023-12-20T01:13:59;7.80;99.90
52267;DHT22;38223;50.940;4.034;2023-12-20T01:16:29;7.80;99.90
52267;DHT22;38223;50.940;4.034;2023-12-20T01:19:00;7.70;99.90
52267;DHT22;38223;50.940;4.034;2023-12-20T01:21:30;7.70;99.90
52267;DHT22;38223;50.940;4.034;2023-12-20T01:24:01;7.80;99.90
52267;DHT22;38223;50.940;4.034;2023-12-20T01:26:33;7.70;99.90
52267;DHT22;38223;50.940;4.034;2023-12-20T01:29:01;7.70;99.90
52267;DHT22;38223;50.940;4.034;2023-12-20T01:31:30;7.70;99.90
52267;DHT22;38223;50.940;4.034;2023-12-20T01:34:01;7.70;99.90
52267;DHT22;38223;50.940;4.034;2023-12-20T01:36:33;7.70;99.90
52267;DHT22;38223;50.940;4.034;2023-12-20T01:39:00;7.70;99.90
52267;DHT22;38223;50.940;4.034;2023-12-20T01:41:31;7.70;99.90
52267;DHT22;38223;50.940;4.034;2023-12-20T01:44:02;7.70;99.90
52267;DHT22;38223;50.940;4.034;2023-12-20T01:46:30;7.70;99.90
52267;DHT22;38223;50.940;4.034;2023-12-20T01:48:57;7.70;99.90
52267;DHT22;38223;50.940;4.034;2023-12-20T01:51:27;7.70;99.90
52267;DHT22;38223;50.940;4.034;2023-12-20T01:53:59;7.80;99.90
52267;DHT22;38223;50.940;4.034;2023-12-20T01:56:30;7.80;99.90
52267;DHT22;38223;50.940;4.034;2023-12-20T01:59:00;7.80;99.90
52267;DHT22;38223;50.940;4.034;2023-12-20T02:01:30;7.80;99.90
52267;DHT22;38223;50.940;4.034;2023-12-20T02:04:03;7.80;99.90
52267;DHT22;38223;50.940;4.034;2023-12-20T02:06:32;7.80;99.90
52267;DHT22;38223;50.940;4.034;2023-12-20T02:09:03;7.80;99.90
52267;DHT22;38223;50.940;4.034;2023-12-20T02:11:31;7.80;99.90
52267;DHT22;38223;50.940;4.034;2023-12-20T02:14:02;7.90;99.90
52267;DHT22;38223;50.940;4.034;2023-12-20T02:16:33;7.90;99.90
52267;DHT22;38223;50.940;4.034;2023-12-20T02:19:04;7.90;99.90
52267;DHT22;38223;50.940;4.034;2023-12-20T02:21:33;7.90;99.90
52267;DHT22;38223;50.940;4.034;2023-12-20T02:24:05;8.00;99.90
52267;DHT22;38223;50.940;4.034;2023-12-20T02:26:33;8.10;99.90
52267;DHT22;38223;50.940;4.034;2023-12-20T02:29:04;8.00;99.90
52267;DHT22;38223;50.940;4.034;2023-12-20T02:31:35;8.10;99.90
52267;DHT22;38223;50.940;4.034;2023-12-20T02:34:07;8.00;99.90
52267;DHT22;38223;50.940;4.034;2023-12-20T02:36:33;8.10;99.90
52267;DHT22;38223;50.940;4.034;2023-12-20T02:39:01;8.00;99.90
52267;DHT22;38223;50.940;4.034;2023-12-20T02:41:28;8.10;99.90
52267;DHT22;38223;50.940;4.034;2023-12-20T02:44:00;8.30;99.90
52267;DHT22;38223;50.940;4.034;2023-12-20T02:46:31;8.30;99.90
52267;DHT22;38223;50.940;4.034;2023-12-20T02:49:02;8.40;99.90
52267;DHT22;38223;50.940;4.034;2023-12-20T02:51:29;8.30;99.90
52267;DHT22;38223;50.940;4.034;2023-12-20T02:54:00;8.20;99.90
52267;DHT22;38223;50.940;4.034;2023-12-20T02:56:31;8.10;99.90
52267;DHT22;38223;50.940;4.034;2023-12-20T02:58:58;8.30;99.90
52267;DHT22;38223;50.940;4.034;2023-12-20T03:01:29;8.30;99.90
52267;DHT22;38223;50.940;4.034;2023-12-20T03:03:59;8.20;99.90
52267;DHT22;38223;50.940;4.034;2023-12-20T03:06:28;8.00;99.90
52267;DHT22;38223;50.940;4.034;2023-12-20T03:09:00;8.10;99.90
52267;DHT22;38223;50.940;4.034;2023-12-20T03:11:29;8.10;99.90
52267;DHT22;38223;50.940;4.034;2023-12-20T03:13:57;8.10;99.90
52267;DHT22;38223;50.940;4.034;2023-12-20T03:16:24;8.10;99.90
52267;DHT22;38223;50.940;4.034;2023-12-20T03:18:53;8.20;99.90
52267;DHT22;38223;50.940;4.034;2023-12-20T03:21:21;8.10;99.90
52267;DHT22;38223;50.940;4.034;2023-12-20T03:23:49;8.10;99.90
52267;DHT22;38223;50.940;4.034;2023-12-20T03:26:18;8.10;99.90
52267;DHT22;38223;50.940;4.034;2023-12-20T03:28:48;8.10;99.90
52267;DHT22;38223;50.940;4.034;2023-12-20T03:31:18;8.10;99.90
52267;DHT22;38223;50.940;4.034;2023-12-20T03:33:45;8.00;99.90
52267;DHT22;38223;50.940;4.034;2023-12-20T03:36:18;8.00;99.90
52267;DHT22;38223;50.940;4.034;2023-12-20T03:38:46;7.80;99.90
52267;DHT22;38223;50.940;4.034;2023-12-20T03:41:15;7.80;99.90
52267;DHT22;38223;50.940;4.034;2023-12-20T03:43:45;7.90;99.90
52267;DHT22;38223;50.940;4.034;2023-12-20T03:46:15;8.00;99.90
52267;DHT22;38223;50.940;4.034;2023-12-20T03:48:43;7.90;99.90
52267;DHT22;38223;50.940;4.034;2023-12-20T03:51:13;7.90;99.90
52267;DHT22;38223;50.940;4.034;2023-12-20T03:53:42;8.00;99.90
52267;DHT22;38223;50.940;4.034;2023-12-20T03:56:11;8.00;99.90
52267;DHT22;38223;50.940;4.034;2023-12-20T03:58:41;7.90;99.90
52267;DHT22;38223;50.940;4.034;2023-12-20T04:01:12;7.80;99.90
52267;DHT22;38223;50.940;4.034;2023-12-20T04:03:42;7.80;99.90
52267;DHT22;38223;50.940;4.034;2023-12-20T04:06:10;7.80;99.90
52267;DHT22;38223;50.940;4.034;2023-12-20T04:08:39;7.80;99.90
52267;DHT22;38223;50.940;4.034;2023-12-20T04:11:07;7.70;99.90
52267;DHT22;38223;50.940;4.034;2023-12-20T04:13:35;7.70;99.90
52267;DHT22;38223;50.940;4.034;2023-12-20T04:16:05;7.70;99.90
52267;DHT22;38223;50.940;4.034;2023-12-20T04:18:32;7.70;99.90
52267;DHT22;38223;50.940;4.034;2023-12-20T04:21:01;7.70;99.90
52267;DHT22;38223;50.940;4.034;2023-12-20T04:23:32;7.70;99.90
52267;DHT22;38223;50.940;4.034;2023-12-20T04:26:04;7.60;99.90
52267;DHT22;38223;50.940;4.034;2023-12-20T04:28:30;7.60;99.90
52267;DHT22;38223;50.940;4.034;2023-12-20T04:30:59;7.60;99.90
52267;DHT22;38223;50.940;4.034;2023-12-20T04:33:29;7.50;99.90
52267;DHT22;38223;50.940;4.034;2023-12-20T04:35:58;7.60;99.90
52267;DHT22;38223;50.940;4.034;2023-12-20T04:38:28;7.60;99.90
52267;DHT22;38223;50.940;4.034;2023-12-20T04:40:57;7.60;99.90
52267;DHT22;38223;50.940;4.034;2023-12-20T04:43:27;7.60;99.90
52267;DHT22;38223;50.940;4.034;2023-12-20T04:45:57;7.70;99.90
52267;DHT22;38223;50.940;4.034;2023-12-20T04:48:28;7.80;99.90
52267;DHT22;38223;50.940;4.034;2023-12-20T04:50:58;7.80;99.90
52267;DHT22;38223;50.940;4.034;2023-12-20T04:53:30;7.70;99.90
52267;DHT22;38223;50.940;4.034;2023-12-20T04:56:04;7.70;99.90
52267;DHT22;38223;50.940;4.034;2023-12-20T04:58:31;7.50;99.90
52267;DHT22;38223;50.940;4.034;2023-12-20T05:01:00;7.40;99.90
52267;DHT22;38223;50.940;4.034;2023-12-20T05:03:28;7.40;99.90
52267;DHT22;38223;50.940;4.034;2023-12-20T05:05:59;7.40;99.90
52267;DHT22;38223;50.940;4.034;2023-12-20T05:08:31;7.40;99.90
52267;DHT22;38223;50.940;4.034;2023-12-20T05:11:03;7.50;99.90
52267;DHT22;38223;50.940;4.034;2023-12-20T05:13:30;7.40;99.90
52267;DHT22;38223;50.940;4.034;2023-12-20T05:16:02;7.40;99.90
52267;DHT22;38223;50.940;4.034;2023-12-20T05:18:32;7.40;99.90
52267;DHT22;38223;50.940;4.034;2023-12-20T05:21:01;7.40;99.90
52267;DHT22;38223;50.940;4.034;2023-12-20T05:23:48;7.40;99.90
52267;DHT22;38223;50.940;4.034;2023-12-20T05:26:17;7.40;99.90
52267;DHT22;38223;50.940;4.034;2023-12-20T05:28:45;7.30;99.90
52267;DHT22;38223;50.940;4.034;2023-12-20T05:31:14;7.30;99.90
52267;DHT22;38223;50.940;4.034;2023-12-20T05:33:45;7.20;99.90
52267;DHT22;38223;50.940;4.034;2023-12-20T05:36:18;7.10;99.90
52267;DHT22;38223;50.940;4.034;2023-12-20T05:38:44;7.20;99.90
52267;DHT22;38223;50.940;4.034;2023-12-20T05:41:14;7.20;99.90
52267;DHT22;38223;50.940;4.034;2023-12-20T05:43:46;7.20;99.90
52267;DHT22;38223;50.940;4.034;2023-12-20T05:46:16;7.20;99.90
52267;DHT22;38223;50.940;4.034;2023-12-20T05:48:47;7.20;99.90
52267;DHT22;38223;50.940;4.034;2023-12-20T05:51:17;7.10;99.90
52267;DHT22;38223;50.940;4.034;2023-12-20T05:53:47;7.20;99.90
52267;DHT22;38223;50.940;4.034;2023-12-20T05:56:17;7.30;99.90
52267;DHT22;38223;50.940;4.034;2023-12-20T05:58:47;7.40;99.90
52267;DHT22;38223;50.940;4.034;2023-12-20T06:01:18;7.40;99.90
52267;DHT22;38223;50.940;4.034;2023-12-20T06:03:46;7.30;99.90
52267;DHT22;38223;50.940;4.034;2023-12-20T06:06:17;7.30;99.90
52267;DHT22;38223;50.940;4.034;2023-12-20T06:08:45;7.20;99.90
52267;DHT22;38223;50.940;4.034;2023-12-20T06:11:12;7.20;99.90
52267;DHT22;38223;50.940;4.034;2023-12-20T06:13:42;7.30;99.90
52267;DHT22;38223;50.940;4.034;2023-12-20T06:16:13;7.30;99.90
52267;DHT22;38223;50.940;4.034;2023-12-20T06:18:42;7.30;99.90
52267;DHT22;38223;50.940;4.034;2023-12-20T06:21:15;7.40;99.90
52267;DHT22;38223;50.940;4.034;2023-12-20T06:23:44;7.30;99.90
52267;DHT22;38223;50.940;4.034;2023-12-20T06:26:13;7.30;99.90
52267;DHT22;38223;50.940;4.034;2023-12-20T06:28:43;7.30;99.90
52267;DHT22;38223;50.940;4.034;2023-12-20T06:31:12;7.40;99.90
52267;DHT22;38223;50.940;4.034;2023-12-20T06:33:39;7.30;99.90
52267;DHT22;38223;50.940;4.034;2023-12-20T06:36:11;7.40;99.90
52267;DHT22;38223;50.940;4.034;2023-12-20T06:38:41;7.30;99.90
52267;DHT22;38223;50.940;4.034;2023-12-20T06:41:13;7.20;99.90
52267;DHT22;38223;50.940;4.034;2023-12-20T06:43:41;7.30;99.90
52267;DHT22;38223;50.940;4.034;2023-12-20T06:46:12;7.40;99.90
52267;DHT22;38223;50.940;4.034;2023-12-20T06:48:41;7.30;99.90
52267;DHT22;38223;50.940;4.034;2023-12-20T06:51:13;7.40;99.90
52267;DHT22;38223;50.940;4.034;2023-12-20T06:53:45;7.40;99.90
52267;DHT22;38223;50.940;4.034;2023-12-20T06:56:15;7.50;99.90
52267;DHT22;38223;50.940;4.034;2023-12-20T06:58:43;7.50;99.90
52267;DHT22;38223;50.940;4.034;2023-12-20T07:01:15;7.40;99.90
52267;DHT22;38223;50.940;4.034;2023-12-20T07:03:45;7.40;99.90
52267;DHT22;38223;50.940;4.034;2023-12-20T07:06:13;7.40;99.90
52267;DHT22;38223;50.940;4.034;2023-12-20T07:08:42;7.30;99.90
52267;DHT22;38223;50.940;4.034;2023-12-20T07:11:13;7.20;99.90
52267;DHT22;38223;50.940;4.034;2023-12-20T07:13:45;7.30;99.90
52267;DHT22;38223;50.940;4.034;2023-12-20T07:16:14;7.30;99.90
52267;DHT22;38223;50.940;4.034;2023-12-20T07:18:42;7.20;99.90
52267;DHT22;38223;50.940;4.034;2023-12-20T07:21:15;7.20;99.90
52267;DHT22;38223;50.940;4.034;2023-12-20T07:23:46;7.10;99.90
52267;DHT22;38223;50.940;4.034;2023-12-20T07:26:16;7.20;99.90
52267;DHT22;38223;50.940;4.034;2023-12-20T07:28:45;7.30;99.90
52267;DHT22;38223;50.940;4.034;2023-12-20T07:31:15;7.30;99.90
52267;DHT22;38223;50.940;4.034;2023-12-20T07:33:44;7.30;99.90
52267;DHT22;38223;50.940;4.034;2023-12-20T07:36:15;7.20;99.90
52267;DHT22;38223;50.940;4.034;2023-12-20T07:38:42;7.20;99.90
52267;DHT22;38223;50.940;4.034;2023-12-20T07:41:11;7.30;99.90
52267;DHT22;38223;50.940;4.034;2023-12-20T07:43:38;7.50;99.90
52267;DHT22;38223;50.940;4.034;2023-12-20T07:46:08;7.40;99.90
52267;DHT22;38223;50.940;4.034;2023-12-20T07:48:37;7.40;99.90
52267;DHT22;38223;50.940;4.034;2023-12-20T07:51:04;7.40;99.90
52267;DHT22;38223;50.940;4.034;2023-12-20T07:53:34;7.30;99.90
52267;DHT22;38223;50.940;4.034;2023-12-20T07:56:13;7.20;99.90
52267;DHT22;38223;50.940;4.034;2023-12-20T07:58:33;7.40;99.90
52267;DHT22;38223;50.940;4.034;2023-12-20T08:01:01;7.50;99.90
52267;DHT22;38223;50.940;4.034;2023-12-20T08:03:31;7.30;99.90
52267;DHT22;38223;50.940;4.034;2023-12-20T08:06:00;7.40;99.90
52267;DHT22;38223;50.940;4.034;2023-12-20T08:08:27;7.40;99.90
52267;DHT22;38223;50.940;4.034;2023-12-20T08:10:57;7.40;99.90
52267;DHT22;38223;50.940;4.034;2023-12-20T08:13:27;7.30;99.90
52267;DHT22;38223;50.940;4.034;2023-12-20T08:15:55;7.30;99.90
52267;DHT22;38223;50.940;4.034;2023-12-20T08:18:25;7.20;99.90
52267;DHT22;38223;50.940;4.034;2023-12-20T08:20:55;7.50;99.90
52267;DHT22;38223;50.940;4.034;2023-12-20T08:23:25;7.50;99.90
52267;DHT22;38223;50.940;4.034;2023-12-20T08:25:56;7.60;99.90
52267;DHT22;38223;50.940;4.034;2023-12-20T08:28:26;7.70;99.90
52267;DHT22;38223;50.940;4.034;2023-12-20T08:30:55;7.60;99.90
52267;DHT22;38223;50.940;4.034;2023-12-20T08:33:23;7.50;99.90
52267;DHT22;38223;50.940;4.034;2023-12-20T08:35:53;7.40;99.90
52267;DHT22;38223;50.940;4.034;2023-12-20T08:38:22;7.40;99.90
52267;DHT22;38223;50.940;4.034;2023-12-20T08:40:54;7.40;99.90
52267;DHT22;38223;50.940;4.034;2023-12-20T08:43:26;7.60;99.90
52267;DHT22;38223;50.940;4.034;2023-12-20T08:45:55;7.60;99.90
52267;DHT22;38223;50.940;4.034;2023-12-20T08:48:24;7.70;99.90
52267;DHT22;38223;50.940;4.034;2023-12-20T08:50:53;7.80;99.90
52267;DHT22;38223;50.940;4.034;2023-12-20T08:53:23;7.70;99.90
52267;DHT22;38223;50.940;4.034;2023-12-20T08:55:51;7.60;99.90
52267;DHT22;38223;50.940;4.034;2023-12-20T08:58:19;7.50;99.90
52267;DHT22;38223;50.940;4.034;2023-12-20T09:00:49;7.50;99.90
52267;DHT22;38223;50.940;4.034;2023-12-20T09:03:16;7.60;99.90
52267;DHT22;38223;50.940;4.034;2023-12-20T09:05:43;7.60;99.90
52267;DHT22;38223;50.940;4.034;2023-12-20T09:08:10;7.60;99.90
52267;DHT22;38223;50.940;4.034;2023-12-20T09:10:40;7.60;99.90
52267;DHT22;38223;50.940;4.034;2023-12-20T09:13:10;7.40;99.90
52267;DHT22;38223;50.940;4.034;2023-12-20T09:15:39;7.40;99.90
52267;DHT22;38223;50.940;4.034;2023-12-20T09:18:06;7.50;99.90
52267;DHT22;38223;50.940;4.034;2023-12-20T09:20:34;7.50;99.90
52267;DHT22;38223;50.940;4.034;2023-12-20T09:23:04;7.50;99.90
52267;DHT22;38223;50.940;4.034;2023-12-20T09:25:37;7.50;99.90
52267;DHT22;38223;50.940;4.034;2023-12-20T09:28:06;7.40;99.90
52267;DHT22;38223;50.940;4.034;2023-12-20T09:30:34;7.50;99.90
52267;DHT22;38223;50.940;4.034;2023-12-20T09:33:02;7.60;99.90
52267;DHT22;38223;50.940;4.034;2023-12-20T09:35:32;7.60;99.90
52267;DHT22;38223;50.940;4.034;2023-12-20T09:38:05;7.70;99.90
52267;DHT22;38223;50.940;4.034;2023-12-20T09:40:32;7.70;99.90
52267;DHT22;38223;50.940;4.034;2023-12-20T09:43:08;7.80;99.90
52267;DHT22;38223;50.940;4.034;2023-12-20T09:45:34;7.90;99.90
52267;DHT22;38223;50.940;4.034;2023-12-20T09:48:01;7.80;99.90
52267;DHT22;38223;50.940;4.034;2023-12-20T09:50:30;7.70;99.90
52267;DHT22;38223;50.940;4.034;2023-12-20T09:52:58;7.60;99.90
52267;DHT22;38223;50.940;4.034;2023-12-20T09:55:28;7.70;99.90
52267;DHT22;38223;50.940;4.034;2023-12-20T09:57:59;7.70;99.90
52267;DHT22;38223;50.940;4.034;2023-12-20T10:00:31;7.70;99.90
52267;DHT22;38223;50.940;4.034;2023-12-20T10:02:59;7.70;99.90
52267;DHT22;38223;50.940;4.034;2023-12-20T10:05:33;7.70;99.90
52267;DHT22;38223;50.940;4.034;2023-12-20T10:08:04;7.80;99.90
52267;DHT22;38223;50.940;4.034;2023-12-20T10:10:33;7.90;99.90
52267;DHT22;38223;50.940;4.034;2023-12-20T10:15:36;7.90;99.90
52267;DHT22;38223;50.940;4.034;2023-12-20T10:18:05;8.00;99.90
52267;DHT22;38223;50.940;4.034;2023-12-20T10:20:32;8.00;99.90
52267;DHT22;38223;50.940;4.034;2023-12-20T10:23:02;8.10;99.90
52267;DHT22;38223;50.940;4.034;2023-12-20T10:25:29;8.20;99.90
52267;DHT22;38223;50.940;4.034;2023-12-20T10:28:13;8.30;99.90
52267;DHT22;38223;50.940;4.034;2023-12-20T10:30:44;8.30;99.90
52267;DHT22;38223;50.940;4.034;2023-12-20T10:33:23;8.30;99.90
52267;DHT22;38223;50.940;4.034;2023-12-20T10:35:44;8.30;99.90
52267;DHT22;38223;50.940;4.034;2023-12-20T10:38:14;8.40;99.90
52267;DHT22;38223;50.940;4.034;2023-12-20T10:40:47;8.50;99.90
52267;DHT22;38223;50.940;4.034;2023-12-20T10:43:18;8.60;99.90
52267;DHT22;38223;50.940;4.034;2023-12-20T10:45:48;8.70;99.90
52267;DHT22;38223;50.940;4.034;2023-12-20T10:48:16;8.50;99.90
52267;DHT22;38223;50.940;4.034;2023-12-20T10:50:47;8.50;99.90
52267;DHT22;38223;50.940;4.034;2023-12-20T10:53:20;8.50;99.90
52267;DHT22;38223;50.940;4.034;2023-12-20T10:55:47;8.50;99.90
52267;DHT22;38223;50.940;4.034;2023-12-20T10:58:18;8.50;99.90
52267;DHT22;38223;50.940;4.034;2023-12-20T11:00:48;8.60;99.90
52267;DHT22;38223;50.940;4.034;2023-12-20T11:03:19;8.70;99.90
52267;DHT22;38223;50.940;4.034;2023-12-20T11:05:58;8.60;99.90
52267;DHT22;38223;50.940;4.034;2023-12-20T11:08:28;8.70;99.90
52267;DHT22;38223;50.940;4.034;2023-12-20T11:10:59;8.80;99.90
52267;DHT22;38223;50.940;4.034;2023-12-20T11:13:28;8.80;99.90
52267;DHT22;38223;50.940;4.034;2023-12-20T11:15:54;8.80;99.90
52267;DHT22;38223;50.940;4.034;2023-12-20T11:18:31;8.90;99.90
52267;DHT22;38223;50.940;4.034;2023-12-20T11:21:01;9.00;99.90
52267;DHT22;38223;50.940;4.034;2023-12-20T11:23:32;8.90;99.90
52267;DHT22;38223;50.940;4.034;2023-12-20T11:26:04;8.90;99.90
52267;DHT22;38223;50.940;4.034;2023-12-20T11:28:37;8.80;99.90
52267;DHT22;38223;50.940;4.034;2023-12-20T11:31:08;8.90;99.90
52267;DHT22;38223;50.940;4.034;2023-12-20T11:33:37;8.90;99.90
52267;DHT22;38223;50.940;4.034;2023-12-20T11:36:14;8.90;99.90
52267;DHT22;38223;50.940;4.034;2023-12-20T11:39:04;8.90;99.90
52267;DHT22;38223;50.940;4.034;2023-12-20T11:41:11;9.00;99.90
52267;DHT22;38223;50.940;4.034;2023-12-20T11:43:39;9.00;99.90
52267;DHT22;38223;50.940;4.034;2023-12-20T11:46:09;9.10;99.90
52267;DHT22;38223;50.940;4.034;2023-12-20T11:48:40;9.10;99.90
52267;DHT22;38223;50.940;4.034;2023-12-20T11:51:09;9.10;99.90
52267;DHT22;38223;50.940;4.034;2023-12-20T11:53:39;9.10;99.90
52267;DHT22;38223;50.940;4.034;2023-12-20T11:56:09;8.90;99.90
52267;DHT22;38223;50.940;4.034;2023-12-20T11:58:40;9.00;99.90
52267;DHT22;38223;50.940;4.034;2023-12-20T12:01:07;9.10;99.90
52267;DHT22;38223;50.940;4.034;2023-12-20T12:03:36;9.10;99.90
52267;DHT22;38223;50.940;4.034;2023-12-20T12:06:05;9.10;99.90
52267;DHT22;38223;50.940;4.034;2023-12-20T12:08:33;9.20;99.90
52267;DHT22;38223;50.940;4.034;2023-12-20T12:11:05;9.30;99.90
52267;DHT22;38223;50.940;4.034;2023-12-20T12:13:32;9.40;99.90
52267;DHT22;38223;50.940;4.034;2023-12-20T12:16:01;9.40;99.90
52267;DHT22;38223;50.940;4.034;2023-12-20T12:18:28;9.60;99.90
52267;DHT22;38223;50.940;4.034;2023-12-20T12:21:00;9.60;99.90
52267;DHT22;38223;50.940;4.034;2023-12-20T12:23:29;9.50;99.90
52267;DHT22;38223;50.940;4.034;2023-12-20T12:25:56;9.50;99.90
52267;DHT22;38223;50.940;4.034;2023-12-20T12:28:25;9.50;99.90
52267;DHT22;38223;50.940;4.034;2023-12-20T12:30:58;9.60;99.90
52267;DHT22;38223;50.940;4.034;2023-12-20T12:33:26;9.60;99.90
52267;DHT22;38223;50.940;4.034;2023-12-20T12:35:53;9.60;99.90
52267;DHT22;38223;50.940;4.034;2023-12-20T12:38:24;9.60;99.90
52267;DHT22;38223;50.940;4.034;2023-12-20T12:40:54;9.50;99.90
52267;DHT22;38223;50.940;4.034;2023-12-20T12:43:26;9.50;99.90
52267;DHT22;38223;50.940;4.034;2023-12-20T12:45:54;9.60;99.90
52267;DHT22;38223;50.940;4.034;2023-12-20T12:48:21;9.50;99.90
52267;DHT22;38223;50.940;4.034;2023-12-20T12:50:51;9.70;99.90
52267;DHT22;38223;50.940;4.034;2023-12-20T12:53:19;9.70;99.90
52267;DHT22;38223;50.940;4.034;2023-12-20T12:55:52;9.80;99.90
52267;DHT22;38223;50.940;4.034;2023-12-20T12:58:19;9.80;99.90
52267;DHT22;38223;50.940;4.034;2023-12-20T13:00:46;9.90;99.90
52267;DHT22;38223;50.940;4.034;2023-12-20T13:03:13;9.90;99.90
52267;DHT22;38223;50.940;4.034;2023-12-20T13:05:40;9.90;99.90
52267;DHT22;38223;50.940;4.034;2023-12-20T13:08:10;9.90;99.90
52267;DHT22;38223;50.940;4.034;2023-12-20T13:10:39;10.10;99.90
52267;DHT22;38223;50.940;4.034;2023-12-20T13:13:06;10.00;99.90
52267;DHT22;38223;50.940;4.034;2023-12-20T13:15:34;10.00;99.90
52267;DHT22;38223;50.940;4.034;2023-12-20T13:18:08;10.00;99.90
52267;DHT22;38223;50.940;4.034;2023-12-20T13:20:37;10.00;99.90
52267;DHT22;38223;50.940;4.034;2023-12-20T13:23:08;10.10;99.90
52267;DHT22;38223;50.940;4.034;2023-12-20T13:25:39;10.00;99.90
52267;DHT22;38223;50.940;4.034;2023-12-20T13:28:09;10.00;99.90
52267;DHT22;38223;50.940;4.034;2023-12-20T13:30:39;9.90;99.90
52267;DHT22;38223;50.940;4.034;2023-12-20T13:33:10;9.90;99.90
52267;DHT22;38223;50.940;4.034;2023-12-20T13:35:40;9.90;99.90
52267;DHT22;38223;50.940;4.034;2023-12-20T13:38:12;10.00;99.90
52267;DHT22;38223;50.940;4.034;2023-12-20T13:40:43;10.00;99.90
52267;DHT22;38223;50.940;4.034;2023-12-20T13:43:14;10.10;99.90
52267;DHT22;38223;50.940;4.034;2023-12-20T13:45:44;10.10;99.90
52267;DHT22;38223;50.940;4.034;2023-12-20T13:48:16;10.20;99.90
52267;DHT22;38223;50.940;4.034;2023-12-20T13:50:46;10.20;99.90
52267;DHT22;38223;50.940;4.034;2023-12-20T13:53:15;10.30;99.90
52267;DHT22;38223;50.940;4.034;2023-12-20T13:55:44;10.10;99.90
52267;DHT22;38223;50.940;4.034;2023-12-20T13:58:15;10.30;99.90
52267;DHT22;38223;50.940;4.034;2023-12-20T14:00:46;10.20;99.90
52267;DHT22;38223;50.940;4.034;2023-12-20T14:03:17;10.00;99.90
52267;DHT22;38223;50.940;4.034;2023-12-20T14:05:47;10.10;99.90
52267;DHT22;38223;50.940;4.034;2023-12-20T14:08:18;10.10;99.90
52267;DHT22;38223;50.940;4.034;2023-12-20T14:10:47;10.30;99.90
52267;DHT22;38223;50.940;4.034;2023-12-20T14:13:15;10.30;99.90
52267;DHT22;38223;50.940;4.034;2023-12-20T14:15:44;10.30;99.90
52267;DHT22;38223;50.940;4.034;2023-12-20T14:18:17;10.40;99.90
52267;DHT22;38223;50.940;4.034;2023-12-20T14:20:46;10.30;99.90
52267;DHT22;38223;50.940;4.034;2023-12-20T14:23:18;10.40;99.90
52267;DHT22;38223;50.940;4.034;2023-12-20T14:26:11;10.50;99.90
52267;DHT22;38223;50.940;4.034;2023-12-20T14:28:41;10.40;99.90
52267;DHT22;38223;50.940;4.034;2023-12-20T14:31:14;10.40;99.90
52267;DHT22;38223;50.940;4.034;2023-12-20T14:33:47;10.40;99.90
52267;DHT22;38223;50.940;4.034;2023-12-20T14:36:18;10.30;99.90
52267;DHT22;38223;50.940;4.034;2023-12-20T14:38:48;10.30;99.90
52267;DHT22;38223;50.940;4.034;2023-12-20T14:41:18;10.20;99.90
52267;DHT22;38223;50.940;4.034;2023-12-20T14:43:48;10.10;99.90
52267;DHT22;38223;50.940;4.034;2023-12-20T14:46:19;10.10;99.90
52267;DHT22;38223;50.940;4.034;2023-12-20T14:48:48;10.10;99.90
52267;DHT22;38223;50.940;4.034;2023-12-20T14:51:15;10.10;99.90
52267;DHT22;38223;50.940;4.034;2023-12-20T14:53:45;10.20;99.90
52267;DHT22;38223;50.940;4.034;2023-12-20T14:56:16;10.20;99.90
52267;DHT22;38223;50.940;4.034;2023-12-20T14:58:46;10.20;99.90
52267;DHT22;38223;50.940;4.034;2023-12-20T15:01:14;10.20;99.90
52267;DHT22;38223;50.940;4.034;2023-12-20T15:03:43;10.20;99.90
52267;DHT22;38223;50.940;4.034;2023-12-20T15:06:10;10.30;99.90
52267;DHT22;38223;50.940;4.034;2023-12-20T15:08:41;10.30;99.90
52267;DHT22;38223;50.940;4.034;2023-12-20T15:11:09;10.40;99.90
52267;DHT22;38223;50.940;4.034;2023-12-20T15:13:40;10.40;99.90
52267;DHT22;38223;50.940;4.034;2023-12-20T15:16:08;10.40;99.90
52267;DHT22;38223;50.940;4.034;2023-12-20T15:18:38;10.40;99.90
52267;DHT22;38223;50.940;4.034;2023-12-20T15:21:09;10.40;99.90
52267;DHT22;38223;50.940;4.034;2023-12-20T15:23:40;10.40;99.90
52267;DHT22;38223;50.940;4.034;2023-12-20T15:26:19;10.60;99.90
52267;DHT22;38223;50.940;4.034;2023-12-20T15:28:49;10.60;99.90
52267;DHT22;38223;50.940;4.034;2023-12-20T15:31:17;10.50;99.90
52267;DHT22;38223;50.940;4.034;2023-12-20T15:33:43;10.60;99.90
52267;DHT22;38223;50.940;4.034;2023-12-20T15:36:12;10.40;99.90
52267;DHT22;38223;50.940;4.034;2023-12-20T15:38:43;10.50;99.90
52267;DHT22;38223;50.940;4.034;2023-12-20T15:41:19;10.40;99.90
52267;DHT22;38223;50.940;4.034;2023-12-20T15:43:49;10.40;99.90
52267;DHT22;38223;50.940;4.034;2023-12-20T15:46:18;10.50;99.90
52267;DHT22;38223;50.940;4.034;2023-12-20T15:48:51;10.50;99.90
52267;DHT22;38223;50.940;4.034;2023-12-20T15:51:23;10.50;99.90
52267;DHT22;38223;50.940;4.034;2023-12-20T15:53:50;10.50;99.90
52267;DHT22;38223;50.940;4.034;2023-12-20T15:56:20;10.70;99.90
52267;DHT22;38223;50.940;4.034;2023-12-20T15:58:53;10.60;99.90
52267;DHT22;38223;50.940;4.034;2023-12-20T16:01:22;10.60;99.90